Time;durP1;ratioP1;P1;durP2;ratioP2;P2;SDS_P1;SDS_P2;PMS_P1;PMS_P2;Temp;Humidity;BMP_temperature;BMP_pressure;BME280_temperature;BME280_humidity;BME280_pressure;Samples;Min_cycle;Max_cycle;Signal;HPM_P1;HPM_P2
2022/08/08 00:02:26;;;;;;;0.80;0.80;;;;;;;;;;7387311;19;20007;-64
2022/08/08 00:05:18;;;;;;;1.15;0.80;;;;;;;;;;7389282;19;20005;-65
2022/08/08 00:08:03;;;;;;;0.80;0.63;;;;;;;;;;7393351;19;19999;-64
2022/08/08 00:10:37;;;;;;;0.77;0.60;;;;;;;;;;7390097;19;20007;-65
2022/08/08 00:13:23;;;;;;;0.68;0.60;;;;;;;;;;7388021;19;20006;-64
2022/08/08 00:16:00;;;;;;;0.75;0.75;;;;;;;;;;7387961;19;20010;-65
2022/08/08 00:18:35;;;;;;;1.23;0.90;;;;;;;;;;7389251;19;20587;-64
2022/08/08 00:21:02;;;;;;;0.60;0.60;;;;;;;;;;7388919;19;20006;-65
2022/08/08 00:23:43;;;;;;;0.63;0.63;;;;;;;;;;7387666;19;20354;-65
2022/08/08 00:26:13;;;;;;;0.70;0.70;;;;;;;;;;7387432;19;20013;-65
2022/08/08 00:28:45;;;;;;;1.37;0.77;;;;;;;;;;7387212;19;19994;-65
2022/08/08 00:31:18;;;;;;;0.60;0.60;;;;;;;;;;7388873;19;20074;-65
2022/08/08 00:35:09;;;;;;;0.43;0.43;;;;;;;;;;7387901;19;20066;-65
2022/08/08 00:36:57;;;;;;;0.70;0.70;;;;;;;;;;7388774;19;19995;-64
2022/08/08 00:39:43;;;;;;;1.00;0.88;;;;;;;;;;7384905;19;20018;-64
2022/08/08 00:42:36;;;;;;;0.73;0.73;;;;;;;;;;7387135;19;19999;-63
2022/08/08 00:45:30;;;;;;;0.70;0.70;;;;;;;;;;7388609;19;20026;-64
2022/08/08 00:48:23;;;;;;;2.38;1.10;;;;;;;;;;7388429;19;20002;-65
2022/08/08 00:51:05;;;;;;;0.55;0.55;;;;;;;;;;7387210;19;20003;-65
2022/08/08 00:53:52;;;;;;;0.98;0.88;;;;;;;;;;7387624;19;20009;-65
2022/08/08 00:56:23;;;;;;;0.65;0.65;;;;;;;;;;7387361;19;20001;-65
2022/08/08 00:59:26;;;;;;;0.63;0.60;;;;;;;;;;7388504;19;20009;-65
2022/08/08 01:02:10;;;;;;;0.45;0.40;;;;;;;;;;7387415;19;19998;-65
2022/08/08 01:05:00;;;;;;;1.30;0.75;;;;;;;;;;7387764;19;20446;-64
2022/08/08 01:07:51;;;;;;;0.93;0.57;;;;;;;;;;7392225;19;20376;-64
2022/08/08 01:10:17;;;;;;;0.68;0.68;;;;;;;;;;7386743;19;20014;-65
2022/08/08 01:12:42;;;;;;;1.58;0.88;;;;;;;;;;7387242;19;19999;-65
2022/08/08 01:15:46;;;;;;;1.10;0.55;;;;;;;;;;7389345;19;20002;-64
2022/08/08 01:18:36;;;;;;;0.80;0.68;;;;;;;;;;7387957;19;20036;-64
2022/08/08 01:21:29;;;;;;;0.65;0.65;;;;;;;;;;7387193;19;20002;-64
2022/08/08 01:23:54;;;;;;;1.20;0.80;;;;;;;;;;7386839;19;20006;-65
2022/08/08 01:26:31;;;;;;;0.77;0.77;;;;;;;;;;7385867;19;19994;-65
2022/08/08 01:29:32;;;;;;;0.60;0.60;;;;;;;;;;7386089;19;20005;-64
2022/08/08 01:32:16;;;;;;;0.73;0.60;;;;;;;;;;7386715;19;20487;-64
2022/08/08 01:34:41;;;;;;;1.10;0.90;;;;;;;;;;7386664;19;19999;-64
2022/08/08 01:37:15;;;;;;;1.20;0.80;;;;;;;;;;7385117;19;20358;-65
2022/08/08 01:39:43;;;;;;;1.30;0.73;;;;;;;;;;7387447;19;20002;-65
2022/08/08 01:42:24;;;;;;;1.15;1.05;;;;;;;;;;7384241;19;19998;-64
2022/08/08 01:45:19;;;;;;;0.73;0.70;;;;;;;;;;7386179;19;20074;-65
2022/08/08 01:48:06;;;;;;;0.82;0.82;;;;;;;;;;7386501;19;20079;-65
2022/08/08 01:50:40;;;;;;;0.60;0.60;;;;;;;;;;7390221;19;20100;-65
2022/08/08 01:53:41;;;;;;;0.68;0.68;;;;;;;;;;7390769;19;20001;-65
2022/08/08 01:56:23;;;;;;;3.25;1.23;;;;;;;;;;7395040;19;19995;-64
2022/08/08 01:59:14;;;;;;;1.92;0.68;;;;;;;;;;7393852;19;20002;-65
2022/08/08 02:02:02;;;;;;;0.50;0.50;;;;;;;;;;7388157;19;20609;-64
2022/08/08 02:04:41;;;;;;;0.75;0.75;;;;;;;;;;7391829;19;20001;-64
2022/08/08 02:07:15;;;;;;;0.57;0.57;;;;;;;;;;7396215;19;20019;-64
2022/08/08 02:09:51;;;;;;;1.15;0.90;;;;;;;;;;7393703;19;20002;-64
2022/08/08 02:12:28;;;;;;;0.52;0.52;;;;;;;;;;7392763;19;20015;-65
2022/08/08 02:15:02;;;;;;;0.50;0.50;;;;;;;;;;7392344;19;20020;-64
2022/08/08 02:17:35;;;;;;;0.40;0.40;;;;;;;;;;7391561;19;20667;-64
2022/08/08 02:20:19;;;;;;;0.30;0.30;;;;;;;;;;7393337;19;20002;-65
2022/08/08 02:22:55;;;;;;;0.68;0.60;;;;;;;;;;7391730;19;20002;-64
2022/08/08 02:25:39;;;;;;;0.95;0.90;;;;;;;;;;7391450;19;20002;-64
2022/08/08 02:28:16;;;;;;;0.93;0.90;;;;;;;;;;7392764;19;20008;-64
2022/08/08 02:31:03;;;;;;;0.73;0.52;;;;;;;;;;7393196;19;20003;-64
2022/08/08 02:34:09;;;;;;;0.80;0.80;;;;;;;;;;7389579;19;20023;-64
2022/08/08 02:36:50;;;;;;;1.17;0.70;;;;;;;;;;7391541;19;20013;-64
2022/08/08 02:39:24;;;;;;;0.80;0.80;;;;;;;;;;7391196;19;20002;-64
2022/08/08 02:42:14;;;;;;;0.65;0.65;;;;;;;;;;7391194;19;20002;-65
2022/08/08 02:45:04;;;;;;;0.98;0.82;;;;;;;;;;7390959;19;20093;-65
2022/08/08 02:48:20;;;;;;;0.75;0.75;;;;;;;;;;7391545;19;20027;-64
2022/08/08 02:51:11;;;;;;;1.05;0.65;;;;;;;;;;7388604;19;20104;-63
2022/08/08 02:54:13;;;;;;;0.95;0.63;;;;;;;;;;7391361;19;19994;-64
2022/08/08 02:56:57;;;;;;;0.60;0.60;;;;;;;;;;7394576;19;20019;-63
2022/08/08 02:59:59;;;;;;;1.05;0.73;;;;;;;;;;7392402;19;20062;-65
2022/08/08 03:02:33;;;;;;;0.60;0.60;;;;;;;;;;7389708;19;19995;-65
2022/08/08 03:05:20;;;;;;;0.70;0.70;;;;;;;;;;7391427;19;20003;-65
2022/08/08 03:08:04;;;;;;;1.08;0.77;;;;;;;;;;7396152;19;19999;-65
2022/08/08 03:11:08;;;;;;;0.70;0.70;;;;;;;;;;7390179;19;20018;-64
2022/08/08 03:14:08;;;;;;;0.55;0.55;;;;;;;;;;7390629;19;20535;-65
2022/08/08 03:16:33;;;;;;;0.60;0.60;;;;;;;;;;7390876;19;20329;-65
2022/08/08 03:19:15;;;;;;;0.40;0.40;;;;;;;;;;7393815;19;20107;-64
2022/08/08 03:21:40;;;;;;;0.65;0.65;;;;;;;;;;7388727;19;20235;-65
2022/08/08 03:24:05;;;;;;;0.60;0.60;;;;;;;;;;7390416;19;19999;-65
2022/08/08 03:26:34;;;;;;;0.55;0.55;;;;;;;;;;7387253;19;20002;-65
2022/08/08 03:29:02;;;;;;;0.98;0.65;;;;;;;;;;7391554;19;20358;-65
2022/08/08 03:34:16;;;;;;;0.75;0.75;;;;;;;;;;7389892;19;20090;-66
2022/08/08 03:36:42;;;;;;;0.50;0.50;;;;;;;;;;7390926;19;20018;-63
2022/08/08 03:39:12;;;;;;;0.70;0.70;;;;;;;;;;7388616;19;20001;-64
2022/08/08 03:41:38;;;;;;;1.08;0.60;;;;;;;;;;7387743;19;19998;-65
2022/08/08 03:44:04;;;;;;;1.33;0.95;;;;;;;;;;7389318;19;20479;-65
2022/08/08 03:46:29;;;;;;;0.73;0.73;;;;;;;;;;7387817;19;20003;-63
2022/08/08 03:49:00;;;;;;;1.10;0.63;;;;;;;;;;7393938;19;20005;-65
2022/08/08 03:51:25;;;;;;;0.95;0.88;;;;;;;;;;7388205;19;20006;-66
2022/08/08 03:53:51;;;;;;;0.80;0.80;;;;;;;;;;7388608;19;20009;-64
2022/08/08 03:56:18;;;;;;;0.80;0.80;;;;;;;;;;7387789;19;20002;-63
2022/08/08 03:58:51;;;;;;;0.60;0.60;;;;;;;;;;7387826;19;20002;-63
2022/08/08 04:01:18;;;;;;;0.98;0.88;;;;;;;;;;7386951;19;20006;-63
2022/08/08 04:03:46;;;;;;;1.33;0.77;;;;;;;;;;7387777;19;20411;-63
2022/08/08 04:06:11;;;;;;;0.93;0.63;;;;;;;;;;7386567;19;19998;-63
2022/08/08 04:08:40;;;;;;;0.63;0.63;;;;;;;;;;7389333;19;19998;-65
2022/08/08 04:11:07;;;;;;;1.48;0.65;;;;;;;;;;7387842;19;20002;-65
2022/08/08 04:13:33;;;;;;;0.60;0.60;;;;;;;;;;7388060;19;20022;-66
2022/08/08 04:15:58;;;;;;;0.77;0.63;;;;;;;;;;7387828;19;20074;-63
2022/08/08 04:18:24;;;;;;;0.68;0.68;;;;;;;;;;7388126;19;20001;-63
2022/08/08 04:20:49;;;;;;;0.80;0.80;;;;;;;;;;7388682;19;19998;-63
2022/08/08 04:23:15;;;;;;;2.25;1.00;;;;;;;;;;7387987;19;20003;-64
2022/08/08 04:25:40;;;;;;;0.60;0.60;;;;;;;;;;7388072;19;20018;-64
2022/08/08 04:28:07;;;;;;;1.55;0.70;;;;;;;;;;7388855;19;19999;-63
2022/08/08 04:30:33;;;;;;;1.48;0.73;;;;;;;;;;7388855;19;19999;-63
2022/08/08 04:32:58;;;;;;;1.15;0.73;;;;;;;;;;7386898;19;20014;-64
2022/08/08 04:35:23;;;;;;;2.17;0.77;;;;;;;;;;7386567;19;20062;-64
2022/08/08 04:37:50;;;;;;;0.50;0.50;;;;;;;;;;7388897;19;20373;-64
2022/08/08 04:40:17;;;;;;;0.55;0.55;;;;;;;;;;7386674;19;20003;-63
2022/08/08 04:42:46;;;;;;;0.88;0.65;;;;;;;;;;7386132;19;20090;-64
2022/08/08 04:45:12;;;;;;;1.95;1.02;;;;;;;;;;7387793;19;20010;-64
2022/08/08 04:47:37;;;;;;;1.08;0.70;;;;;;;;;;7389136;19;20463;-64
2022/08/08 04:50:03;;;;;;;0.80;0.80;;;;;;;;;;7388643;19;20495;-63
2022/08/08 04:52:29;;;;;;;1.55;0.98;;;;;;;;;;7392555;19;19998;-64
2022/08/08 04:54:54;;;;;;;0.82;0.82;;;;;;;;;;7387235;19;20025;-63
2022/08/08 04:57:19;;;;;;;0.70;0.70;;;;;;;;;;7388763;19;20003;-64
2022/08/08 04:59:45;;;;;;;0.63;0.63;;;;;;;;;;7387196;19;20488;-65
2022/08/08 05:02:10;;;;;;;0.75;0.73;;;;;;;;;;7385607;19;20487;-65
2022/08/08 05:04:36;;;;;;;0.63;0.63;;;;;;;;;;7385958;19;20007;-65
2022/08/08 05:07:01;;;;;;;0.88;0.88;;;;;;;;;;7391290;19;19999;-65
2022/08/08 05:09:27;;;;;;;1.65;0.85;;;;;;;;;;7389000;19;20006;-65
2022/08/08 05:11:52;;;;;;;6.25;2.80;;;;;;;;;;7388789;19;20423;-66
2022/08/08 05:14:18;;;;;;;2.20;1.00;;;;;;;;;;7385691;19;20381;-65
2022/08/08 05:16:43;;;;;;;2.85;1.40;;;;;;;;;;7388563;19;20002;-63
2022/08/08 05:19:11;;;;;;;0.77;0.77;;;;;;;;;;7387081;19;20026;-65
2022/08/08 05:21:41;;;;;;;0.88;0.88;;;;;;;;;;7385703;19;20007;-65
2022/08/08 05:24:07;;;;;;;3.67;1.10;;;;;;;;;;7387040;19;19999;-65
2022/08/08 05:26:33;;;;;;;1.17;1.02;;;;;;;;;;7397994;19;20013;-65
2022/08/08 05:28:58;;;;;;;0.80;0.80;;;;;;;;;;7396002;19;20010;-64
2022/08/08 05:31:24;;;;;;;5.30;1.17;;;;;;;;;;7397641;19;20464;-65
2022/08/08 05:33:49;;;;;;;1.75;0.90;;;;;;;;;;7397152;19;19998;-64
2022/08/08 05:36:22;;;;;;;6.00;1.27;;;;;;;;;;7393815;19;20055;-64
2022/08/08 05:38:52;;;;;;;0.80;0.80;;;;;;;;;;7399232;19;20004;-66
2022/08/08 05:41:22;;;;;;;1.00;1.00;;;;;;;;;;7395696;19;20005;-64
2022/08/08 05:43:48;;;;;;;2.08;0.80;;;;;;;;;;7398491;19;20003;-64
2022/08/08 05:46:14;;;;;;;1.10;0.90;;;;;;;;;;7392322;19;20015;-65
2022/08/08 05:48:41;;;;;;;2.65;1.45;;;;;;;;;;7397015;19;21194;-65
2022/08/08 05:51:07;;;;;;;0.95;0.95;;;;;;;;;;7398668;19;19999;-65
2022/08/08 05:53:32;;;;;;;1.25;1.08;;;;;;;;;;7395805;19;20022;-65
2022/08/08 05:55:59;;;;;;;0.88;0.75;;;;;;;;;;7396001;19;20815;-63
2022/08/08 05:58:30;;;;;;;0.82;0.82;;;;;;;;;;7398616;19;20002;-66
2022/08/08 06:00:57;;;;;;;0.95;0.93;;;;;;;;;;7396801;19;20479;-65
2022/08/08 06:03:24;;;;;;;0.95;0.77;;;;;;;;;;7391683;19;20035;-65
2022/08/08 06:05:54;;;;;;;0.70;0.70;;;;;;;;;;7390622;19;20031;-64
2022/08/08 06:08:41;;;;;;;1.27;0.93;;;;;;;;;;7392679;19;20002;-64
2022/08/08 06:11:07;;;;;;;2.10;1.02;;;;;;;;;;7393895;19;19994;-64
2022/08/08 06:13:32;;;;;;;1.02;0.90;;;;;;;;;;7395581;19;20018;-65
2022/08/08 06:15:58;;;;;;;0.80;0.80;;;;;;;;;;7395700;19;20014;-65
2022/08/08 06:18:25;;;;;;;1.38;0.95;;;;;;;;;;7396786;19;19990;-65
2022/08/08 06:20:54;;;;;;;3.03;0.60;;;;;;;;;;7391162;19;20098;-65
2022/08/08 06:23:20;;;;;;;3.78;1.05;;;;;;;;;;7385401;19;20007;-65
2022/08/08 06:26:03;;;;;;;0.60;0.60;;;;;;;;;;7387025;19;20389;-65
2022/08/08 06:28:33;;;;;;;0.80;0.80;;;;;;;;;;7388669;19;20002;-65
2022/08/08 06:31:04;;;;;;;1.40;1.13;;;;;;;;;;7388437;19;19999;-65
2022/08/08 06:33:42;;;;;;;;;;;;;;;;;;7388153;19;20345;-65
2022/08/08 06:36:10;;;;;;;1.48;0.75;;;;;;;;;;7386032;19;19915;-66
2022/08/08 06:38:36;;;;;;;0.75;0.75;;;;;;;;;;7392525;19;20027;-66
2022/08/08 06:41:11;;;;;;;2.30;0.75;;;;;;;;;;7391592;19;20015;-66
2022/08/08 06:43:42;;;;;;;2.15;1.10;;;;;;;;;;7392240;19;20021;-64
2022/08/08 06:46:07;;;;;;;1.05;1.00;;;;;;;;;;7391242;19;20006;-64
2022/08/08 06:48:33;;;;;;;1.67;1.02;;;;;;;;;;7392937;19;20478;-65
2022/08/08 06:51:01;;;;;;;0.95;0.80;;;;;;;;;;7393162;19;20006;-66
2022/08/08 06:53:28;;;;;;;1.30;0.82;;;;;;;;;;7391241;19;20009;-65
2022/08/08 06:55:53;;;;;;;1.80;1.00;;;;;;;;;;7392000;19;19994;-66
2022/08/08 06:58:19;;;;;;;1.17;0.70;;;;;;;;;;7390637;19;19998;-66
2022/08/08 07:00:48;;;;;;;4.78;2.05;;;;;;;;;;7389636;19;20054;-66
2022/08/08 07:03:25;;;;;;;0.80;0.80;;;;;;;;;;7389122;19;19998;-66
2022/08/08 07:05:53;;;;;;;0.55;0.55;;;;;;;;;;7390594;19;19998;-65
2022/08/08 07:08:28;;;;;;;0.60;0.60;;;;;;;;;;7392340;19;20009;-65
2022/08/08 07:10:58;;;;;;;0.70;0.70;;;;;;;;;;7392110;19;20480;-65
2022/08/08 07:13:30;;;;;;;0.97;0.70;;;;;;;;;;7391128;19;19999;-65
2022/08/08 07:16:03;;;;;;;0.70;0.70;;;;;;;;;;7390916;19;20595;-65
2022/08/08 07:18:35;;;;;;;0.77;0.77;;;;;;;;;;7391831;19;20468;-65
2022/08/08 07:21:06;;;;;;;0.60;0.60;;;;;;;;;;7390848;19;20026;-65
2022/08/08 07:23:34;;;;;;;0.57;0.57;;;;;;;;;;7390646;19;20045;-65
2022/08/08 07:26:02;;;;;;;1.48;0.75;;;;;;;;;;7391369;19;20003;-65
2022/08/08 07:28:27;;;;;;;0.95;0.63;;;;;;;;;;7389739;19;20003;-66
2022/08/08 07:30:53;;;;;;;2.20;0.70;;;;;;;;;;7391745;19;20077;-65
2022/08/08 07:33:22;;;;;;;1.00;1.00;;;;;;;;;;7389824;19;20010;-65
2022/08/08 07:35:48;;;;;;;0.60;0.60;;;;;;;;;;7389129;19;20031;-65
2022/08/08 07:38:16;;;;;;;0.47;0.45;;;;;;;;;;7391118;19;20470;-65
2022/08/08 07:40:44;;;;;;;0.70;0.70;;;;;;;;;;7390202;19;20018;-65
2022/08/08 07:43:10;;;;;;;1.90;0.85;;;;;;;;;;7390153;19;20005;-65
2022/08/08 07:45:36;;;;;;;2.17;0.95;;;;;;;;;;7393621;19;20010;-65
2022/08/08 07:48:02;;;;;;;0.82;0.82;;;;;;;;;;7393247;19;19997;-65
2022/08/08 07:50:28;;;;;;;0.98;0.88;;;;;;;;;;7390507;19;19995;-66
2022/08/08 07:52:58;;;;;;;1.02;0.70;;;;;;;;;;7391336;19;20017;-65
2022/08/08 07:55:28;;;;;;;0.73;0.73;;;;;;;;;;7392272;19;20008;-66
2022/08/08 07:58:07;;;;;;;0.90;0.90;;;;;;;;;;7392936;19;19999;-65
2022/08/08 08:00:43;;;;;;;0.60;0.60;;;;;;;;;;7392541;19;20008;-64
2022/08/08 08:03:16;;;;;;;0.70;0.70;;;;;;;;;;7388485;19;19998;-64
2022/08/08 08:05:43;;;;;;;0.88;0.68;;;;;;;;;;7387735;19;20003;-64
2022/08/08 08:08:17;;;;;;;0.80;0.80;;;;;;;;;;7392974;19;19995;-64
2022/08/08 08:10:44;;;;;;;2.55;0.90;;;;;;;;;;7384806;19;20002;-64
2022/08/08 08:13:24;;;;;;;0.93;0.93;;;;;;;;;;7387902;19;20547;-64
2022/08/08 08:15:59;;;;;;;1.25;0.88;;;;;;;;;;7386029;19;20003;-65
2022/08/08 08:18:28;;;;;;;1.85;1.40;;;;;;;;;;7389189;19;20038;-65
2022/08/08 08:20:53;;;;;;;1.55;1.00;;;;;;;;;;7388514;19;20006;-65
2022/08/08 08:23:19;;;;;;;1.10;0.75;;;;;;;;;;7385889;19;20456;-64
2022/08/08 08:25:44;;;;;;;0.70;0.70;;;;;;;;;;7388240;19;20007;-64
2022/08/08 08:28:09;;;;;;;0.90;0.90;;;;;;;;;;7388996;19;20066;-65
2022/08/08 08:30:37;;;;;;;1.40;0.95;;;;;;;;;;7389351;19;19995;-65
2022/08/08 08:33:02;;;;;;;0.80;0.80;;;;;;;;;;7387954;19;20054;-65
2022/08/08 08:35:28;;;;;;;0.77;0.77;;;;;;;;;;7388702;19;20002;-65
2022/08/08 08:37:53;;;;;;;1.42;0.70;;;;;;;;;;7387802;19;19999;-66
2022/08/08 08:40:19;;;;;;;0.77;0.77;;;;;;;;;;7388016;19;19999;-64
2022/08/08 08:42:46;;;;;;;0.90;0.90;;;;;;;;;;7389266;19;20098;-64
2022/08/08 08:45:11;;;;;;;1.52;0.70;;;;;;;;;;7384716;19;20002;-64
2022/08/08 08:47:39;;;;;;;0.75;0.75;;;;;;;;;;7387690;19;20475;-64
2022/08/08 08:50:05;;;;;;;1.42;0.70;;;;;;;;;;7388248;19;19999;-64
2022/08/08 08:52:31;;;;;;;0.50;0.50;;;;;;;;;;7388408;19;20321;-65
2022/08/08 08:54:59;;;;;;;1.02;0.95;;;;;;;;;;7386932;19;20461;-65
2022/08/08 08:57:26;;;;;;;0.80;0.80;;;;;;;;;;7389303;19;19990;-66
2022/08/08 08:59:55;;;;;;;1.33;1.20;;;;;;;;;;7386358;19;20016;-64
2022/08/08 09:02:23;;;;;;;1.13;1.00;;;;;;;;;;7386423;19;20018;-64
2022/08/08 09:04:54;;;;;;;0.75;0.75;;;;;;;;;;7384610;19;20002;-64
2022/08/08 09:07:24;;;;;;;0.93;0.85;;;;;;;;;;7390939;19;20005;-64
2022/08/08 09:09:52;;;;;;;1.27;0.80;;;;;;;;;;7388136;19;19999;-64
2022/08/08 09:12:24;;;;;;;0.80;0.80;;;;;;;;;;7388471;19;20397;-64
2022/08/08 09:14:53;;;;;;;0.95;0.80;;;;;;;;;;7384697;19;20044;-64
2022/08/08 09:17:19;;;;;;;1.27;0.98;;;;;;;;;;7386404;19;20036;-64
2022/08/08 09:19:47;;;;;;;0.60;0.60;;;;;;;;;;7386551;19;19999;-64
2022/08/08 09:22:13;;;;;;;0.90;0.90;;;;;;;;;;7391329;19;20431;-64
2022/08/08 09:24:40;;;;;;;0.90;0.90;;;;;;;;;;7384709;19;20011;-65
2022/08/08 09:27:07;;;;;;;1.15;1.00;;;;;;;;;;7388045;19;20007;-65
2022/08/08 09:30:01;;;;;;;0.70;0.70;;;;;;;;;;7387900;19;20002;-64
2022/08/08 09:32:43;;;;;;;0.85;0.80;;;;;;;;;;7385666;19;20010;-65
2022/08/08 09:35:14;;;;;;;0.88;0.88;;;;;;;;;;7385145;19;20006;-65
2022/08/08 09:37:44;;;;;;;0.77;0.77;;;;;;;;;;7387894;19;20007;-67
2022/08/08 09:40:13;;;;;;;0.80;0.80;;;;;;;;;;7385456;19;20484;-64
2022/08/08 09:42:41;;;;;;;1.58;1.00;;;;;;;;;;7385356;19;20003;-65
2022/08/08 09:45:16;;;;;;;1.10;1.00;;;;;;;;;;7383190;19;20014;-64
2022/08/08 09:47:42;;;;;;;0.90;0.90;;;;;;;;;;7387048;19;20451;-64
2022/08/08 09:50:11;;;;;;;0.65;0.55;;;;;;;;;;7386720;19;20009;-65
2022/08/08 09:52:41;;;;;;;1.30;1.00;;;;;;;;;;7385218;19;20019;-63
2022/08/08 09:55:07;;;;;;;1.48;0.88;;;;;;;;;;7384229;19;20003;-65
2022/08/08 09:57:35;;;;;;;3.53;1.60;;;;;;;;;;7389419;19;20015;-63
2022/08/08 10:00:03;;;;;;;0.93;0.80;;;;;;;;;;7386216;19;19998;-63
2022/08/08 10:02:35;;;;;;;0.70;0.70;;;;;;;;;;7384847;19;20062;-66
2022/08/08 10:05:07;;;;;;;1.10;1.00;;;;;;;;;;7384052;19;20034;-66
2022/08/08 10:07:32;;;;;;;0.80;0.80;;;;;;;;;;7389830;19;19991;-66
2022/08/08 10:09:57;;;;;;;0.75;0.75;;;;;;;;;;7385985;19;20023;-63
2022/08/08 10:12:34;;;;;;;0.85;0.85;;;;;;;;;;7390459;19;20362;-64
2022/08/08 10:15:01;;;;;;;0.90;0.90;;;;;;;;;;7391205;19;20384;-64
2022/08/08 10:17:29;;;;;;;0.82;0.70;;;;;;;;;;7393367;19;20009;-65
2022/08/08 10:20:00;;;;;;;0.80;0.80;;;;;;;;;;7391107;19;20003;-65
2022/08/08 10:22:30;;;;;;;0.85;0.85;;;;;;;;;;7390658;19;20030;-64
2022/08/08 10:25:03;;;;;;;1.10;1.10;;;;;;;;;;7388542;19;20007;-64
2022/08/08 10:27:37;;;;;;;1.50;0.65;;;;;;;;;;7393073;19;20003;-64
2022/08/08 10:30:05;;;;;;;3.95;2.15;;;;;;;;;;7392655;19;20009;-64
2022/08/08 10:32:31;;;;;;;2.88;0.90;;;;;;;;;;7391215;19;20472;-64
2022/08/08 10:34:58;;;;;;;1.13;0.93;;;;;;;;;;7390512;19;20356;-65
2022/08/08 10:37:26;;;;;;;1.17;0.70;;;;;;;;;;7392950;19;20010;-64
2022/08/08 10:39:54;;;;;;;0.90;0.90;;;;;;;;;;7392815;19;20003;-65
2022/08/08 10:42:22;;;;;;;0.90;0.85;;;;;;;;;;7390400;19;20010;-65
2022/08/08 10:44:48;;;;;;;0.70;0.70;;;;;;;;;;7390352;19;20009;-65
2022/08/08 10:47:15;;;;;;;0.80;0.80;;;;;;;;;;7392415;19;20002;-65
2022/08/08 10:49:51;;;;;;;0.93;0.68;;;;;;;;;;7390685;19;20020;-64
2022/08/08 10:52:34;;;;;;;1.05;1.00;;;;;;;;;;7390175;19;20036;-64
2022/08/08 10:55:05;;;;;;;0.98;0.88;;;;;;;;;;7389877;19;20081;-64
2022/08/08 10:57:41;;;;;;;0.73;0.73;;;;;;;;;;7393802;19;20005;-64
2022/08/08 11:00:09;;;;;;;1.10;0.80;;;;;;;;;;7392155;19;20373;-64
2022/08/08 11:02:35;;;;;;;0.70;0.70;;;;;;;;;;7388160;19;20006;-64
2022/08/08 11:05:03;;;;;;;1.00;0.90;;;;;;;;;;7389481;19;20333;-64
2022/08/08 11:07:36;;;;;;;0.80;0.80;;;;;;;;;;7395266;19;20006;-64
2022/08/08 11:10:13;;;;;;;1.17;0.88;;;;;;;;;;7390089;19;20002;-63
2022/08/08 11:12:54;;;;;;;0.93;0.90;;;;;;;;;;7391914;19;20095;-64
2022/08/08 11:15:23;;;;;;;0.77;0.77;;;;;;;;;;7388901;19;19998;-63
2022/08/08 11:17:50;;;;;;;2.55;0.98;;;;;;;;;;7391800;19;20078;-64
2022/08/08 11:20:24;;;;;;;0.65;0.65;;;;;;;;;;7391973;19;20370;-64
2022/08/08 11:22:58;;;;;;;1.10;0.82;;;;;;;;;;7391221;19;19995;-63
2022/08/08 11:25:27;;;;;;;1.70;1.05;;;;;;;;;;7388635;19;20511;-63
2022/08/08 11:27:54;;;;;;;1.05;0.98;;;;;;;;;;7389423;19;19999;-63
2022/08/08 11:30:21;;;;;;;1.27;0.82;;;;;;;;;;7391230;19;20219;-63
2022/08/08 11:32:49;;;;;;;0.73;0.70;;;;;;;;;;7391358;19;20017;-64
2022/08/08 11:35:14;;;;;;;0.75;0.75;;;;;;;;;;7387144;19;19999;-65
2022/08/08 11:37:41;;;;;;;1.05;0.98;;;;;;;;;;7390430;19;20003;-65
2022/08/08 11:40:12;;;;;;;1.10;0.90;;;;;;;;;;7390876;19;20456;-64
2022/08/08 11:42:39;;;;;;;0.77;0.77;;;;;;;;;;7388534;19;20399;-64
2022/08/08 11:45:05;;;;;;;0.55;0.55;;;;;;;;;;7387976;19;20354;-65
2022/08/08 11:47:32;;;;;;;1.48;1.10;;;;;;;;;;7388726;19;20003;-64
2022/08/08 11:50:12;;;;;;;0.70;0.70;;;;;;;;;;7393545;19;19994;-65
2022/08/08 11:52:39;;;;;;;0.73;0.73;;;;;;;;;;7390614;19;19998;-65
2022/08/08 11:55:18;;;;;;;0.70;0.70;;;;;;;;;;7387795;19;20010;-64
2022/08/08 11:57:44;;;;;;;2.17;1.40;;;;;;;;;;7389579;19;20006;-64
2022/08/08 12:00:16;;;;;;;0.80;0.80;;;;;;;;;;7387150;19;20333;-64
2022/08/08 12:02:49;;;;;;;0.68;0.68;;;;;;;;;;7387697;19;19999;-64
2022/08/08 12:05:15;;;;;;;1.10;1.00;;;;;;;;;;7387034;19;20010;-64
2022/08/08 12:07:48;;;;;;;0.80;0.80;;;;;;;;;;7391019;19;19999;-64
2022/08/08 12:10:16;;;;;;;0.93;0.93;;;;;;;;;;7390532;19;20066;-64
2022/08/08 12:12:43;;;;;;;0.93;0.90;;;;;;;;;;7389811;19;20027;-64
2022/08/08 12:15:09;;;;;;;0.63;0.63;;;;;;;;;;7386809;19;20006;-64
2022/08/08 12:17:37;;;;;;;0.75;0.75;;;;;;;;;;7388987;19;20009;-64
2022/08/08 12:20:05;;;;;;;1.35;1.00;;;;;;;;;;7387147;19;20344;-64
2022/08/08 12:22:44;;;;;;;0.85;0.85;;;;;;;;;;7383254;19;20066;-63
2022/08/08 12:25:18;;;;;;;1.00;0.95;;;;;;;;;;7386917;19;20022;-64
2022/08/08 12:27:43;;;;;;;1.48;1.00;;;;;;;;;;7390978;19;20009;-63
2022/08/08 12:30:09;;;;;;;1.23;1.00;;;;;;;;;;7388027;19;20437;-63
2022/08/08 12:32:43;;;;;;;1.05;0.95;;;;;;;;;;7384792;19;19999;-63
2022/08/08 12:35:21;;;;;;;0.65;0.65;;;;;;;;;;7379029;19;20003;-63
2022/08/08 12:38:03;;;;;;;0.90;0.88;;;;;;;;;;7383601;19;20003;-63
2022/08/08 12:40:39;;;;;;;0.80;0.80;;;;;;;;;;7382080;19;20006;-63
2022/08/08 12:43:05;;;;;;;0.88;0.88;;;;;;;;;;7387074;19;20389;-63
2022/08/08 12:45:49;;;;;;;1.05;0.82;;;;;;;;;;7385871;19;20029;-63
2022/08/08 12:48:22;;;;;;;1.13;0.70;;;;;;;;;;7377872;19;20006;-64
2022/08/08 12:50:53;;;;;;;1.30;0.75;;;;;;;;;;7383624;19;20019;-63
2022/08/08 12:53:30;;;;;;;0.60;0.60;;;;;;;;;;7382464;19;20392;-63
2022/08/08 12:56:04;;;;;;;1.00;1.00;;;;;;;;;;7384573;19;19994;-64
2022/08/08 12:58:48;;;;;;;0.60;0.60;;;;;;;;;;7380528;19;20463;-63
2022/08/08 13:01:14;;;;;;;1.40;0.95;;;;;;;;;;7384442;19;20006;-64
2022/08/08 13:03:45;;;;;;;1.40;1.10;;;;;;;;;;7383066;19;20050;-63
2022/08/08 13:06:18;;;;;;;0.90;0.90;;;;;;;;;;7385241;19;20337;-63
2022/08/08 13:08:46;;;;;;;0.80;0.80;;;;;;;;;;7385322;19;20034;-64
2022/08/08 13:11:19;;;;;;;0.85;0.85;;;;;;;;;;7386087;19;20444;-64
2022/08/08 13:14:14;;;;;;;0.70;0.70;;;;;;;;;;7385453;19;20006;-63
2022/08/08 13:16:41;;;;;;;0.82;0.82;;;;;;;;;;7386036;19;20031;-64
2022/08/08 13:19:08;;;;;;;0.80;0.80;;;;;;;;;;7385187;19;20006;-63
2022/08/08 13:21:40;;;;;;;0.80;0.80;;;;;;;;;;7383706;19;20003;-63
2022/08/08 13:24:06;;;;;;;1.30;0.90;;;;;;;;;;7383719;19;20401;-64
2022/08/08 13:26:31;;;;;;;0.70;0.70;;;;;;;;;;7381352;19;21629;-64
2022/08/08 13:28:58;;;;;;;0.80;0.80;;;;;;;;;;7388102;19;20023;-64
2022/08/08 13:31:24;;;;;;;0.82;0.60;;;;;;;;;;7379797;19;20381;-64
2022/08/08 13:33:49;;;;;;;0.70;0.70;;;;;;;;;;7383391;19;19995;-63
2022/08/08 13:36:16;;;;;;;0.70;0.70;;;;;;;;;;7382894;19;20425;-63
2022/08/08 13:38:41;;;;;;;1.50;0.90;;;;;;;;;;7385229;19;20026;-64
2022/08/08 13:41:07;;;;;;;0.70;0.70;;;;;;;;;;7382165;19;20011;-63
2022/08/08 13:43:32;;;;;;;0.68;0.68;;;;;;;;;;7381259;19;20515;-63
2022/08/08 13:46:12;;;;;;;1.15;1.08;;;;;;;;;;7388222;19;20022;-63
2022/08/08 13:48:48;;;;;;;0.63;0.60;;;;;;;;;;7392940;19;20074;-63
2022/08/08 13:51:14;;;;;;;0.60;0.60;;;;;;;;;;7391595;19;20044;-64
2022/08/08 13:53:49;;;;;;;0.82;0.77;;;;;;;;;;7390652;19;19998;-64
2022/08/08 13:56:15;;;;;;;0.68;0.68;;;;;;;;;;7387378;19;20373;-64
2022/08/08 13:58:50;;;;;;;0.82;0.60;;;;;;;;;;7389917;19;20001;-63
2022/08/08 14:01:18;;;;;;;0.95;0.80;;;;;;;;;;7388761;19;20118;-63
2022/08/08 14:03:58;;;;;;;0.95;0.82;;;;;;;;;;7388569;19;20444;-63
2022/08/08 14:06:24;;;;;;;0.63;0.63;;;;;;;;;;7390125;19;20466;-64
2022/08/08 14:08:50;;;;;;;0.65;0.65;;;;;;;;;;7393331;19;20068;-63
2022/08/08 14:11:21;;;;;;;0.80;0.80;;;;;;;;;;7393029;19;20011;-63
2022/08/08 14:13:47;;;;;;;0.70;0.70;;;;;;;;;;7391983;19;19995;-65
2022/08/08 14:16:14;;;;;;;0.85;0.85;;;;;;;;;;7388896;19;20058;-65
2022/08/08 14:18:59;;;;;;;1.55;0.88;;;;;;;;;;7391425;19;20408;-64
2022/08/08 14:21:41;;;;;;;0.77;0.77;;;;;;;;;;7391969;19;20062;-64
2022/08/08 14:24:06;;;;;;;0.82;0.82;;;;;;;;;;7389887;19;20010;-64
2022/08/08 14:26:37;;;;;;;1.70;0.90;;;;;;;;;;7388088;19;20023;-65
2022/08/08 14:29:02;;;;;;;0.75;0.75;;;;;;;;;;7392904;19;20003;-65
2022/08/08 14:31:27;;;;;;;1.40;1.00;;;;;;;;;;7391912;19;20010;-66
2022/08/08 14:33:56;;;;;;;2.10;1.20;;;;;;;;;;7379758;19;20344;-65
2022/08/08 14:36:41;;;;;;;1.65;0.80;;;;;;;;;;7388650;19;20010;-66
2022/08/08 14:39:07;;;;;;;0.60;0.60;;;;;;;;;;7386669;19;20006;-63
2022/08/08 14:41:41;;;;;;;0.65;0.65;;;;;;;;;;7389812;19;20357;-63
2022/08/08 14:44:08;;;;;;;0.63;0.63;;;;;;;;;;7384744;19;20002;-65
2022/08/08 14:46:33;;;;;;;0.95;0.90;;;;;;;;;;7389932;19;19994;-66
2022/08/08 14:49:02;;;;;;;1.13;0.70;;;;;;;;;;7387319;19;20009;-64
2022/08/08 14:51:37;;;;;;;0.70;0.70;;;;;;;;;;7389652;19;20487;-64
2022/08/08 14:54:02;;;;;;;0.60;0.60;;;;;;;;;;7387702;19;20006;-64
2022/08/08 14:56:28;;;;;;;2.03;0.80;;;;;;;;;;7388238;19;20498;-64
2022/08/08 14:58:54;;;;;;;0.60;0.60;;;;;;;;;;7388670;19;20006;-66
2022/08/08 15:01:31;;;;;;;2.40;0.70;;;;;;;;;;7389816;19;20062;-66
2022/08/08 15:03:57;;;;;;;0.60;0.60;;;;;;;;;;7388788;19;20681;-64
2022/08/08 15:06:22;;;;;;;0.85;0.63;;;;;;;;;;7387620;19;20007;-64
2022/08/08 15:08:48;;;;;;;0.57;0.57;;;;;;;;;;7391783;19;20009;-64
2022/08/08 15:11:13;;;;;;;0.98;0.80;;;;;;;;;;7389050;19;20003;-65
2022/08/08 15:13:39;;;;;;;1.25;0.90;;;;;;;;;;7390645;19;20066;-64
2022/08/08 15:16:07;;;;;;;0.93;0.82;;;;;;;;;;7386603;19;19999;-64